createdAt,value
2022-12-11T00:00:53.333Z,97.22
2022-12-11T00:03:20.405Z,97.33
2022-12-11T00:05:47.433Z,97.34
2022-12-11T00:08:14.485Z,97.27
2022-12-11T00:10:49.523Z,97.29
2022-12-11T00:13:16.615Z,97.15
2022-12-11T00:15:43.614Z,97.29
2022-12-11T00:18:14.130Z,97.36
2022-12-11T00:20:41.718Z,97.24
2022-12-11T00:23:08.865Z,97.21
2022-12-11T00:25:35.836Z,97.37
2022-12-11T00:28:02.787Z,97.46
2022-12-11T00:30:29.760Z,97.45
2022-12-11T00:32:56.723Z,97.35
2022-12-11T00:35:23.876Z,97.45
2022-12-11T00:37:52.820Z,97.44
2022-12-11T00:40:19.767Z,97.40
2022-12-11T00:42:47.721Z,97.48
2022-12-11T00:45:14.694Z,97.45
2022-12-11T00:47:41.750Z,97.42
2022-12-11T00:50:12.147Z,97.54
2022-12-11T00:52:40.602Z,97.54
2022-12-11T00:55:09.164Z,97.45
2022-12-11T00:57:36.474Z,97.45
2022-12-11T01:00:07.167Z,97.51
2022-12-11T01:02:34.729Z,97.39
2022-12-11T01:05:04.877Z,97.43
2022-12-11T01:07:31.858Z,97.45
2022-12-11T01:10:17.630Z,97.36
2022-12-11T01:12:44.562Z,97.48
2022-12-11T01:15:12.177Z,97.53
2022-12-11T01:17:39.376Z,97.56
2022-12-11T01:20:07.048Z,97.75
2022-12-11T01:22:34.045Z,97.71
2022-12-11T01:25:01.016Z,97.88
2022-12-11T01:27:28.053Z,97.63
2022-12-11T01:29:54.994Z,97.86
2022-12-11T01:32:22.231Z,97.73
2022-12-11T01:34:49.163Z,97.74
2022-12-11T01:37:16.248Z,97.83
2022-12-11T01:39:43.179Z,97.84
2022-12-11T01:42:18.994Z,97.80
2022-12-11T01:44:45.835Z,97.81
2022-12-11T01:47:14.756Z,97.95
2022-12-11T01:49:44.123Z,97.90
2022-12-11T01:52:21.512Z,97.96
2022-12-11T01:54:51.316Z,97.88
2022-12-11T01:57:18.392Z,98.02
2022-12-11T01:59:47.181Z,97.90
2022-12-11T02:02:32.294Z,97.91
2022-12-11T02:05:02.448Z,97.93
2022-12-11T02:07:38.707Z,97.96
2022-12-11T02:10:07.260Z,98.03
2022-12-11T02:12:58.271Z,98.05
2022-12-11T02:15:44.437Z,98.04
2022-12-11T02:18:31.253Z,98.11
2022-12-11T02:21:32.804Z,98.12
2022-12-11T02:24:27.536Z,98.13
2022-12-11T02:27:28.904Z,98.00
2022-12-11T02:30:15.045Z,98.05
2022-12-11T02:32:48.965Z,97.84
2022-12-11T02:35:24.907Z,97.99
2022-12-11T02:38:02.254Z,97.98
2022-12-11T02:40:35.088Z,98.20
2022-12-11T02:43:08.010Z,97.99
2022-12-11T02:45:40.913Z,98.12
2022-12-11T02:48:11.599Z,98.04
2022-12-11T02:50:47.214Z,98.03
2022-12-11T02:53:23.651Z,97.98
2022-12-11T02:56:01.940Z,98.07
2022-12-11T02:58:34.221Z,98.00
2022-12-11T03:01:01.513Z,98.02
2022-12-11T03:03:30.800Z,98.07
2022-12-11T03:05:57.923Z,98.15
2022-12-11T03:08:24.938Z,98.03
2022-12-11T03:10:51.952Z,98.05
2022-12-11T03:13:23.766Z,97.98
2022-12-11T03:16:34.774Z,97.97
2022-12-11T03:19:27.819Z,98.03
2022-12-11T03:22:03.494Z,98.04
2022-12-11T03:25:02.198Z,98.12
2022-12-11T03:27:48.271Z,97.85
2022-12-11T03:30:20.315Z,98.03
2022-12-11T03:32:59.837Z,98.04
2022-12-11T03:35:37.445Z,98.00
2022-12-11T03:38:13.852Z,98.11
2022-12-11T03:40:46.192Z,98.11
2022-12-11T03:43:16.278Z,98.05
2022-12-11T03:45:47.388Z,98.00
2022-12-11T03:48:17.542Z,98.10
2022-12-11T03:50:47.910Z,98.08
2022-12-11T03:53:16.260Z,97.99
2022-12-11T03:55:43.670Z,98.12
2022-12-11T03:58:10.838Z,98.09
2022-12-11T04:00:38.507Z,97.96
2022-12-11T04:03:15.093Z,98.17
2022-12-11T04:05:49.487Z,97.96
2022-12-11T04:08:20.679Z,97.88
2022-12-11T04:11:09.614Z,97.97
2022-12-11T04:13:38.116Z,98.01
2022-12-11T04:16:06.096Z,97.94
2022-12-11T04:18:51.592Z,97.91
2022-12-11T04:21:39.712Z,97.87
2022-12-11T04:24:17.037Z,98.01
2022-12-11T04:26:46.981Z,97.96
2022-12-11T04:29:15.024Z,97.91
2022-12-11T04:31:42.139Z,98.01
2022-12-11T04:34:09.719Z,97.96
2022-12-11T04:36:36.967Z,97.92
2022-12-11T04:39:05.973Z,98.08
2022-12-11T04:41:33.999Z,97.84
2022-12-11T04:44:01.422Z,97.96
2022-12-11T04:46:28.473Z,97.77
2022-12-11T04:48:57.687Z,97.87
2022-12-11T04:51:26.506Z,97.90
2022-12-11T04:53:54.362Z,97.80
2022-12-11T04:56:22.429Z,97.79
2022-12-11T04:58:49.604Z,97.86
2022-12-11T05:01:22.402Z,97.83
2022-12-11T05:03:50.145Z,97.75
2022-12-11T05:06:17.504Z,97.78
2022-12-11T05:08:46.631Z,97.68
2022-12-11T05:11:17.500Z,97.79
2022-12-11T05:13:45.438Z,97.64
2022-12-11T05:16:16.629Z,97.73
2022-12-11T05:18:44.562Z,97.59
2022-12-11T05:21:14.874Z,97.74
2022-12-11T05:23:43.302Z,97.90
2022-12-11T05:26:21.123Z,97.84
2022-12-11T05:28:54.160Z,97.80
2022-12-11T05:31:25.772Z,97.74
2022-12-11T05:33:54.166Z,97.70
2022-12-11T05:36:31.923Z,97.75
2022-12-11T05:39:01.118Z,97.68
2022-12-11T05:41:32.543Z,97.66
2022-12-11T05:44:00.322Z,97.70
2022-12-11T05:46:30.572Z,97.73
2022-12-11T05:49:01.342Z,97.68
2022-12-11T05:51:29.408Z,97.57
2022-12-11T05:53:57.922Z,97.62
2022-12-11T05:56:32.505Z,97.41
2022-12-11T05:59:01.009Z,97.46
2022-12-11T06:01:34.242Z,97.41
2022-12-11T06:04:02.767Z,97.40
2022-12-11T06:06:29.865Z,97.29
2022-12-11T06:08:59.670Z,97.38
2022-12-11T06:11:31.451Z,97.29
2022-12-11T06:13:59.521Z,97.32
2022-12-11T06:16:26.556Z,97.37
2022-12-11T06:18:59.809Z,97.37
2022-12-11T06:21:31.939Z,97.35
2022-12-11T06:24:03.535Z,97.33
2022-12-11T06:26:32.088Z,97.36
2022-12-11T06:28:59.920Z,97.35
2022-12-11T06:31:27.240Z,97.48
2022-12-11T06:33:55.098Z,97.24
2022-12-11T06:36:24.222Z,97.43
2022-12-11T06:38:52.922Z,97.32
2022-12-11T06:41:22.079Z,97.30
2022-12-11T06:43:49.171Z,97.32
2022-12-11T06:46:19.336Z,97.15
2022-12-11T06:48:48.306Z,97.24
2022-12-11T06:51:22.833Z,96.97
2022-12-11T06:53:56.391Z,97.02
2022-12-11T06:56:24.669Z,97.05
2022-12-11T06:58:52.568Z,97.00
2022-12-11T07:01:26.647Z,97.20
2022-12-11T07:03:56.341Z,97.04
2022-12-11T07:06:25.417Z,97.06
2022-12-11T07:08:52.972Z,97.08
2022-12-11T07:11:21.669Z,96.98
2022-12-11T07:13:49.279Z,96.92
2022-12-11T07:16:18.016Z,96.88
2022-12-11T07:18:51.149Z,96.53
2022-12-11T07:21:20.722Z,96.36
2022-12-11T07:23:49.238Z,96.36
2022-12-11T07:26:20.121Z,95.95
2022-12-11T07:28:47.909Z,95.26
2022-12-11T07:31:19.364Z,95.11
2022-12-11T07:33:47.315Z,94.97
2022-12-11T07:36:16.258Z,94.85
2022-12-11T07:38:44.374Z,94.53
2022-12-11T07:41:14.902Z,93.33
2022-12-11T07:43:43.470Z,93.51
2022-12-11T07:46:20.797Z,93.82
2022-12-11T07:48:49.548Z,93.93
2022-12-11T07:51:27.747Z,93.64
2022-12-11T07:54:08.494Z,93.68
2022-12-11T07:56:42.940Z,93.14
2022-12-11T07:59:11.610Z,93.15
2022-12-11T08:01:40.439Z,93.00
2022-12-11T08:04:10.824Z,93.01
2022-12-11T08:06:40.106Z,92.71
2022-12-11T08:09:13.631Z,92.36
2022-12-11T08:11:46.244Z,92.10
2022-12-11T08:14:13.638Z,91.87
2022-12-11T08:16:43.109Z,91.77
2022-12-11T08:19:13.705Z,91.70
2022-12-11T08:21:42.165Z,91.46
2022-12-11T08:24:10.234Z,91.34
2022-12-11T08:26:38.490Z,91.70
2022-12-11T08:29:05.527Z,91.57
2022-12-11T08:31:33.593Z,91.19
2022-12-11T08:34:01.154Z,91.16
2022-12-11T08:36:28.570Z,91.16
2022-12-11T08:38:56.681Z,91.09
2022-12-11T08:41:31.290Z,90.91
2022-12-11T08:44:00.288Z,90.12
2022-12-11T08:46:31.275Z,89.94
2022-12-11T08:48:59.348Z,90.06
2022-12-11T08:51:29.887Z,89.74
2022-12-11T08:54:00.980Z,89.75
2022-12-11T08:56:29.801Z,89.86
2022-12-11T08:59:01.240Z,89.81
2022-12-11T09:01:29.223Z,89.59
2022-12-11T09:03:57.607Z,89.43
2022-12-11T09:06:29.330Z,89.46
2022-12-11T09:09:01.238Z,89.62
2022-12-11T09:11:32.416Z,89.51
2022-12-11T09:14:06.869Z,89.08
2022-12-11T09:16:37.781Z,89.24
2022-12-11T09:19:07.878Z,89.08
2022-12-11T09:21:35.062Z,89.30
2022-12-11T09:24:03.511Z,89.37
2022-12-11T09:26:31.799Z,88.71
2022-12-11T09:28:59.203Z,87.96
2022-12-11T09:31:30.954Z,87.48
2022-12-11T09:34:11.438Z,87.73
2022-12-11T09:36:41.023Z,87.20
2022-12-11T09:39:12.255Z,87.15
2022-12-11T09:41:56.457Z,86.85
2022-12-11T09:44:37.393Z,86.76
2022-12-11T09:47:21.103Z,86.45
2022-12-11T09:49:58.893Z,86.24
2022-12-11T09:52:37.614Z,86.00
2022-12-11T09:55:24.330Z,85.63
2022-12-11T09:58:20.577Z,84.14
2022-12-11T10:00:56.492Z,84.98
2022-12-11T10:03:41.455Z,84.44
2022-12-11T10:06:31.381Z,84.12
2022-12-11T10:09:43.682Z,83.87
2022-12-11T10:12:23.148Z,84.33
2022-12-11T10:15:41.048Z,84.32
2022-12-11T10:18:18.204Z,84.22
2022-12-11T10:20:46.082Z,84.18
2022-12-11T10:23:38.452Z,83.71
2022-12-11T10:26:18.135Z,83.97
2022-12-11T10:28:47.379Z,83.21
2022-12-11T10:31:40.839Z,82.58
2022-12-11T10:34:31.924Z,82.59
2022-12-11T10:37:00.674Z,82.50
2022-12-11T10:39:28.879Z,82.61
2022-12-11T10:41:57.145Z,81.84
2022-12-11T10:44:33.234Z,82.29
2022-12-11T10:47:12.422Z,81.90
2022-12-11T10:49:51.817Z,81.65
2022-12-11T10:52:25.098Z,81.07
2022-12-11T10:55:20.775Z,81.30
2022-12-11T10:57:59.708Z,81.11
2022-12-11T11:00:37.654Z,80.40
2022-12-11T11:03:28.470Z,80.96
2022-12-11T11:06:17.195Z,81.33
2022-12-11T11:08:53.602Z,82.09
2022-12-11T11:11:38.054Z,82.24
2022-12-11T11:14:17.040Z,82.61
2022-12-11T11:16:50.472Z,83.01
2022-12-11T11:19:30.849Z,83.50
2022-12-11T11:22:01.800Z,83.53
2022-12-11T11:24:38.855Z,83.30
2022-12-11T11:27:40.339Z,83.58
2022-12-11T11:30:36.562Z,83.92
2022-12-11T11:33:19.440Z,84.30
2022-12-11T11:36:15.294Z,84.53
2022-12-11T11:38:58.746Z,84.58
2022-12-11T11:41:37.647Z,84.64
2022-12-11T11:46:59.805Z,84.88
2022-12-11T11:50:24.599Z,85.13
2022-12-11T11:53:19.268Z,84.97
2022-12-11T11:56:25.755Z,84.87
2022-12-11T11:59:15.688Z,84.79
2022-12-11T12:01:43.870Z,84.64
2022-12-11T12:04:12.418Z,84.60
2022-12-11T12:07:23.782Z,84.63
2022-12-11T12:10:10.009Z,84.46
2022-12-11T12:13:48.224Z,84.84
2022-12-11T12:16:52.324Z,84.32
2022-12-11T12:19:32.698Z,84.10
2022-12-11T12:22:21.268Z,84.48
2022-12-11T12:25:26.274Z,84.58
2022-12-11T12:28:15.854Z,84.83
2022-12-11T12:31:31.909Z,84.71
2022-12-11T12:34:15.038Z,84.45
2022-12-11T12:37:04.002Z,84.52
2022-12-11T12:40:07.996Z,84.42
2022-12-11T12:42:43.194Z,84.77
2022-12-11T12:45:37.036Z,85.02
2022-12-11T12:48:04.376Z,85.20
2022-12-11T12:50:44.786Z,85.24
2022-12-11T12:53:21.718Z,85.41
2022-12-11T12:55:51.717Z,85.07
2022-12-11T12:58:46.086Z,84.85
2022-12-11T13:01:25.480Z,84.97
2022-12-11T13:04:20.793Z,85.27
2022-12-11T13:06:55.426Z,85.50
2022-12-11T13:09:26.833Z,85.47
2022-12-11T13:12:00.163Z,85.45
2022-12-11T13:14:31.866Z,85.58
2022-12-11T13:17:39.137Z,85.56
2022-12-11T13:20:26.349Z,85.31
2022-12-11T13:23:40.288Z,85.30
2022-12-11T13:26:09.538Z,85.07
2022-12-11T13:28:39.660Z,85.18
2022-12-11T13:31:15.849Z,85.13
2022-12-11T13:33:53.503Z,85.16
2022-12-11T13:36:28.620Z,85.03
2022-12-11T13:39:02.318Z,84.90
2022-12-11T13:41:35.225Z,85.15
2022-12-11T13:44:04.902Z,84.91
2022-12-11T13:46:38.807Z,84.50
2022-12-11T13:49:18.624Z,84.99
2022-12-11T13:51:54.484Z,84.99
2022-12-11T13:54:21.614Z,85.05
2022-12-11T13:57:03.737Z,85.09
2022-12-11T13:59:47.927Z,84.95
2022-12-11T14:02:39.847Z,84.75
2022-12-11T14:05:11.248Z,84.64
2022-12-11T14:07:49.137Z,84.63
2022-12-11T14:10:25.926Z,85.07
2022-12-11T14:13:23.205Z,85.08
2022-12-11T14:15:50.797Z,85.18
2022-12-11T14:18:25.274Z,85.24
2022-12-11T14:20:58.889Z,85.25
2022-12-11T14:23:29.887Z,84.88
2022-12-11T14:26:19.651Z,85.18
2022-12-11T14:28:46.820Z,85.08
2022-12-11T14:31:23.469Z,85.38
2022-12-11T14:34:26.313Z,85.34
2022-12-11T14:36:57.162Z,85.29
2022-12-11T14:39:41.820Z,85.46
2022-12-11T14:42:25.023Z,85.49
2022-12-11T14:45:08.663Z,85.61
2022-12-11T14:47:43.418Z,85.55
2022-12-11T14:50:26.022Z,85.56
2022-12-11T14:53:04.426Z,85.53
2022-12-11T14:55:36.081Z,85.57
2022-12-11T14:58:08.580Z,85.53
2022-12-11T15:00:37.885Z,85.45
2022-12-11T15:03:18.026Z,85.52
2022-12-11T15:05:55.617Z,85.77
2022-12-11T15:08:32.021Z,85.82
2022-12-11T15:11:13.803Z,85.87
2022-12-11T15:13:57.680Z,85.75
2022-12-11T15:16:31.542Z,86.18
2022-12-11T15:18:59.553Z,86.10
2022-12-11T15:21:34.128Z,86.27
2022-12-11T15:24:07.070Z,86.48
2022-12-11T15:26:45.848Z,86.77
2022-12-11T15:29:36.881Z,86.56
2022-12-11T15:32:19.998Z,86.57
2022-12-11T15:34:55.714Z,86.42
2022-12-11T15:37:28.445Z,86.33
2022-12-11T15:39:58.485Z,86.39
2022-12-11T15:42:29.879Z,86.60
2022-12-11T15:44:58.234Z,86.59
2022-12-11T15:47:31.526Z,86.74
2022-12-11T15:50:02.269Z,86.74
2022-12-11T15:52:29.624Z,86.64
2022-12-11T15:54:56.629Z,86.80
2022-12-11T15:57:24.859Z,86.93
2022-12-11T15:59:54.893Z,86.94
2022-12-11T16:02:24.226Z,86.92
2022-12-11T16:04:51.365Z,86.93
2022-12-11T16:07:24.892Z,86.71
2022-12-11T16:09:53.613Z,86.93
2022-12-11T16:12:20.806Z,86.93
2022-12-11T16:14:47.891Z,86.87
2022-12-11T16:17:16.266Z,87.03
2022-12-11T16:19:44.872Z,87.08
2022-12-11T16:22:14.023Z,87.04
2022-12-11T16:24:41.969Z,87.11
2022-12-11T16:27:09.871Z,87.15
2022-12-11T16:29:41.946Z,87.28
2022-12-11T16:32:10.030Z,87.11
2022-12-11T16:34:38.574Z,87.28
2022-12-11T16:37:07.729Z,87.22
2022-12-11T16:39:37.903Z,87.22
2022-12-11T16:42:06.219Z,87.16
2022-12-11T16:44:33.502Z,87.18
2022-12-11T16:47:00.635Z,87.18
2022-12-11T16:49:27.876Z,87.31
2022-12-11T16:51:54.981Z,87.29
2022-12-11T16:54:22.642Z,87.24
2022-12-11T16:56:51.397Z,87.28
2022-12-11T16:59:18.583Z,87.35
2022-12-11T17:01:45.790Z,87.39
2022-12-11T17:04:12.928Z,87.42
2022-12-11T17:06:39.915Z,87.24
2022-12-11T17:09:08.125Z,87.43
2022-12-11T17:11:36.359Z,87.46
2022-12-11T17:14:03.760Z,87.49
2022-12-11T17:16:31.402Z,87.46
2022-12-11T17:18:58.902Z,87.51
2022-12-11T17:21:26.302Z,87.59
2022-12-11T17:23:53.445Z,87.65
2022-12-11T17:26:21.055Z,87.68
2022-12-11T17:28:50.363Z,87.83
2022-12-11T17:31:19.566Z,87.93
2022-12-11T17:33:47.395Z,87.95
2022-12-11T17:36:22.205Z,88.12
2022-12-11T17:38:50.064Z,88.14
2022-12-11T17:41:20.784Z,88.04
2022-12-11T17:43:53.386Z,88.03
2022-12-11T17:46:21.689Z,88.02
2022-12-11T17:48:49.242Z,87.99
2022-12-11T17:51:23.872Z,88.13
2022-12-11T17:53:55.641Z,87.98
2022-12-11T17:56:24.231Z,87.91
2022-12-11T17:58:53.539Z,87.96
2022-12-11T18:01:20.863Z,87.79
2022-12-11T18:03:49.009Z,87.82
2022-12-11T18:06:16.990Z,87.96
2022-12-11T18:08:45.946Z,87.85
2022-12-11T18:11:17.529Z,87.85
2022-12-11T18:13:45.935Z,87.86
2022-12-11T18:16:19.100Z,88.00
2022-12-11T18:18:50.247Z,87.79
2022-12-11T18:21:25.941Z,87.65
2022-12-11T18:23:54.576Z,87.65
2022-12-11T18:26:22.925Z,87.63
2022-12-11T18:28:51.888Z,87.71
2022-12-11T18:31:21.745Z,87.71
2022-12-11T18:33:49.288Z,87.87
2022-12-11T18:36:18.795Z,87.79
2022-12-11T18:38:47.914Z,87.89
2022-12-11T18:41:17.052Z,87.75
2022-12-11T18:43:45.799Z,87.75
2022-12-11T18:46:17.102Z,87.65
2022-12-11T18:48:45.614Z,87.75
2022-12-11T18:51:23.750Z,87.78
2022-12-11T18:53:51.925Z,87.68
2022-12-11T18:56:21.427Z,87.69
2022-12-11T18:58:50.893Z,87.71
2022-12-11T19:01:28.787Z,87.79
2022-12-11T19:04:03.586Z,87.88
2022-12-11T19:06:35.741Z,87.65
2022-12-11T19:09:05.092Z,87.58
2022-12-11T19:11:34.844Z,87.49
2022-12-11T19:14:03.951Z,87.31
2022-12-11T19:16:37.991Z,87.29
2022-12-11T19:19:14.169Z,87.58
2022-12-11T19:21:42.427Z,87.72
2022-12-11T19:24:21.342Z,87.77
2022-12-11T19:26:49.459Z,87.87
2022-12-11T19:29:32.469Z,87.70
2022-12-11T19:32:02.833Z,87.76
2022-12-11T19:34:29.805Z,87.65
2022-12-11T19:36:57.054Z,87.83
2022-12-11T19:39:24.195Z,87.80
2022-12-11T19:41:51.453Z,87.68
2022-12-11T19:44:18.526Z,87.83
2022-12-11T19:46:45.835Z,87.81
2022-12-11T19:49:13.061Z,87.75
2022-12-11T19:51:42.416Z,87.67
2022-12-11T19:54:14.687Z,87.88
2022-12-11T19:56:42.444Z,87.82
2022-12-11T19:59:13.993Z,87.91
2022-12-11T20:01:43.023Z,87.77
2022-12-11T20:04:15.342Z,87.81
2022-12-11T20:06:45.599Z,87.87
2022-12-11T20:09:15.641Z,87.94
2022-12-11T20:11:44.890Z,87.90
2022-12-11T20:14:25.387Z,87.90
2022-12-11T20:17:11.848Z,88.08
2022-12-11T20:19:40.211Z,88.16
2022-12-11T20:22:07.698Z,88.17
2022-12-11T20:24:35.894Z,88.09
2022-12-11T20:27:05.519Z,87.99
2022-12-11T20:29:32.739Z,87.91
2022-12-11T20:32:00.394Z,87.98
2022-12-11T20:34:27.967Z,87.85
2022-12-11T20:36:56.224Z,87.88
2022-12-11T20:39:23.367Z,87.91
2022-12-11T20:41:50.431Z,87.88
2022-12-11T20:44:17.457Z,87.75
2022-12-11T20:46:44.512Z,87.71
2022-12-11T20:49:13.092Z,87.80
2022-12-11T20:51:41.226Z,87.91
2022-12-11T20:54:08.538Z,87.61
2022-12-11T20:56:36.163Z,87.74
2022-12-11T20:59:03.610Z,87.63
2022-12-11T21:01:33.090Z,87.82
2022-12-11T21:04:00.609Z,87.85
2022-12-11T21:06:35.544Z,87.69
2022-12-11T21:09:09.161Z,87.81
2022-12-11T21:11:37.419Z,87.92
2022-12-11T21:14:06.552Z,87.95
2022-12-11T21:16:36.605Z,87.76
2022-12-11T21:19:05.483Z,87.76
2022-12-11T21:21:36.777Z,87.52
2022-12-11T21:24:04.232Z,87.38
2022-12-11T21:26:31.235Z,87.21
2022-12-11T21:28:58.763Z,87.25
2022-12-11T21:31:26.038Z,87.10
2022-12-11T21:33:53.502Z,87.10
2022-12-11T21:36:20.571Z,87.26
2022-12-11T21:38:47.757Z,87.22
2022-12-11T21:41:19.307Z,87.07
2022-12-11T21:46:36.193Z,87.30
2022-12-11T21:49:03.565Z,87.25
2022-12-11T21:51:38.568Z,87.10
2022-12-11T21:54:10.239Z,87.11
2022-12-11T21:56:37.387Z,86.97
2022-12-11T21:59:05.112Z,86.96
2022-12-11T22:01:41.003Z,86.78
2022-12-11T22:04:11.086Z,86.63
2022-12-11T22:06:43.337Z,86.65
2022-12-11T22:09:12.423Z,86.59
2022-12-11T22:11:42.078Z,86.67
2022-12-11T22:14:14.252Z,86.44
2022-12-11T22:16:42.736Z,86.21
2022-12-11T22:19:10.041Z,85.99
2022-12-11T22:21:37.139Z,86.14
2022-12-11T22:24:07.287Z,86.12
2022-12-11T22:26:34.345Z,86.00
2022-12-11T22:29:01.399Z,86.17
2022-12-11T22:31:28.634Z,86.00
2022-12-11T22:33:56.317Z,85.80
2022-12-11T22:36:26.562Z,85.72
2022-12-11T22:38:54.435Z,85.54
2022-12-11T22:41:29.244Z,85.54
2022-12-11T22:43:58.331Z,85.37
2022-12-11T22:46:29.782Z,85.33
2022-12-11T22:48:58.819Z,85.41
2022-12-11T22:51:26.217Z,85.58
2022-12-11T22:53:53.343Z,85.64
2022-12-11T22:56:21.011Z,85.81
2022-12-11T22:58:48.189Z,85.71
2022-12-11T23:01:21.835Z,85.61
2022-12-11T23:03:49.226Z,85.49
2022-12-11T23:06:24.847Z,85.61
2022-12-11T23:08:59.466Z,85.68
2022-12-11T23:11:34.792Z,85.83
2022-12-11T23:14:03.949Z,85.81
2022-12-11T23:16:31.692Z,85.79
2022-12-11T23:18:59.740Z,85.89
2022-12-11T23:21:28.497Z,85.84
2022-12-11T23:23:57.033Z,85.85
2022-12-11T23:26:27.276Z,85.96
2022-12-11T23:28:57.128Z,85.96
2022-12-11T23:31:26.253Z,85.43
2022-12-11T23:33:54.108Z,85.45
2022-12-11T23:36:21.645Z,85.60
2022-12-11T23:38:54.342Z,85.65
2022-12-11T23:41:22.658Z,85.84
2022-12-11T23:43:49.711Z,85.78
2022-12-11T23:46:22.426Z,85.96
2022-12-11T23:48:50.283Z,85.88
2022-12-11T23:51:20.693Z,85.90
2022-12-11T23:53:47.939Z,85.98
2022-12-11T23:56:26.112Z,85.92
2022-12-11T23:58:55.072Z,85.95
